createdAt,value
2022-10-06T00:01:49.342Z,38.63
2022-10-06T00:04:17.674Z,38.60
2022-10-06T00:06:47.046Z,37.60
2022-10-06T00:09:15.270Z,37.17
2022-10-06T00:11:44.344Z,39.00
2022-10-06T00:14:14.921Z,39.37
2022-10-06T00:16:43.212Z,38.80
2022-10-06T00:19:11.397Z,39.90
2022-10-06T00:21:39.566Z,37.07
2022-10-06T00:24:08.863Z,38.80
2022-10-06T00:26:37.657Z,38.27
2022-10-06T00:29:06.359Z,39.97
2022-10-06T00:31:36.501Z,37.00
2022-10-06T00:34:05.104Z,36.60
2022-10-06T00:36:33.523Z,37.37
2022-10-06T00:39:01.786Z,33.80
2022-10-06T00:41:30.031Z,36.10
2022-10-06T00:43:59.356Z,34.70
2022-10-06T00:46:37.703Z,34.07
2022-10-06T00:49:11.862Z,34.00
2022-10-06T00:51:45.512Z,33.17
2022-10-06T00:54:14.421Z,35.27
2022-10-06T00:56:42.674Z,35.40
2022-10-06T00:59:13.151Z,34.47
2022-10-06T01:01:49.004Z,35.40
2022-10-06T01:04:18.634Z,35.13
2022-10-06T01:06:50.755Z,35.67
2022-10-06T01:09:19.896Z,34.93
2022-10-06T01:11:51.253Z,34.60
2022-10-06T01:14:20.573Z,37.03
2022-10-06T01:16:55.811Z,35.67
2022-10-06T01:19:37.837Z,37.90
2022-10-06T01:22:08.567Z,36.30
2022-10-06T01:24:38.665Z,38.83
2022-10-06T01:27:10.316Z,38.30
2022-10-06T01:29:39.053Z,36.50
2022-10-06T01:32:07.339Z,35.47
2022-10-06T01:34:35.674Z,33.47
2022-10-06T01:37:03.935Z,32.40
2022-10-06T01:39:32.247Z,30.90
2022-10-06T01:42:01.875Z,34.20
2022-10-06T01:44:30.209Z,31.63
2022-10-06T01:46:58.511Z,31.10
2022-10-06T01:49:27.766Z,31.73
2022-10-06T01:51:55.964Z,31.57
2022-10-06T01:54:25.485Z,31.20
2022-10-06T01:56:53.843Z,29.97
2022-10-06T01:59:24.733Z,30.50
2022-10-06T02:01:54.055Z,29.70
2022-10-06T02:04:22.582Z,30.27
2022-10-06T02:06:52.630Z,30.23
2022-10-06T02:09:21.999Z,29.07
2022-10-06T02:11:51.507Z,30.07
2022-10-06T02:14:19.932Z,31.03
2022-10-06T02:16:50.690Z,29.67
2022-10-06T02:19:20.193Z,29.23
2022-10-06T02:21:48.483Z,29.10
2022-10-06T02:24:16.872Z,30.27
2022-10-06T02:26:45.287Z,29.63
2022-10-06T02:29:13.625Z,29.23
2022-10-06T02:31:42.226Z,28.80
2022-10-06T02:34:11.989Z,29.33
2022-10-06T02:36:41.350Z,28.77
2022-10-06T02:39:09.705Z,28.97
2022-10-06T02:41:37.841Z,28.80
2022-10-06T02:44:06.451Z,29.40
2022-10-06T02:46:35.076Z,29.80
2022-10-06T02:49:04.596Z,29.60
2022-10-06T02:51:34.316Z,29.00
2022-10-06T02:54:02.605Z,28.90
2022-10-06T02:56:31.005Z,29.57
2022-10-06T02:58:59.407Z,28.73
2022-10-06T03:01:29.395Z,28.93
2022-10-06T03:03:58.113Z,30.73
2022-10-06T03:06:29.021Z,29.40
2022-10-06T03:09:00.410Z,29.30
2022-10-06T03:11:31.031Z,29.50
2022-10-06T03:13:59.460Z,29.27
2022-10-06T03:16:30.189Z,30.57
2022-10-06T03:18:59.137Z,29.60
2022-10-06T03:21:30.236Z,30.33
2022-10-06T03:24:00.867Z,32.10
2022-10-06T03:26:31.503Z,30.57
2022-10-06T03:29:00.327Z,30.57
2022-10-06T03:31:30.647Z,29.70
2022-10-06T03:33:59.282Z,31.47
2022-10-06T03:36:29.478Z,30.43
2022-10-06T03:38:59.341Z,31.87
2022-10-06T03:41:28.976Z,29.40
2022-10-06T03:44:00.147Z,29.80
2022-10-06T03:46:30.943Z,29.40
2022-10-06T03:48:59.792Z,28.43
2022-10-06T03:51:30.038Z,28.70
2022-10-06T03:54:00.794Z,28.83
2022-10-06T03:56:31.136Z,28.60
2022-10-06T03:59:02.187Z,29.20
2022-10-06T04:01:33.303Z,29.03
2022-10-06T04:04:03.189Z,28.57
2022-10-06T04:06:34.830Z,27.43
2022-10-06T04:09:07.774Z,28.70
2022-10-06T04:11:40.059Z,28.10
2022-10-06T04:14:11.038Z,29.13
2022-10-06T04:16:41.165Z,28.93
2022-10-06T04:19:11.489Z,29.47
2022-10-06T04:21:45.202Z,30.70
2022-10-06T04:24:17.259Z,31.00
2022-10-06T04:26:49.030Z,30.60
2022-10-06T04:29:17.606Z,30.90
2022-10-06T04:31:46.219Z,31.03
2022-10-06T04:34:14.846Z,30.70
2022-10-06T04:36:44.729Z,30.93
2022-10-06T04:39:14.866Z,31.53
2022-10-06T04:41:47.578Z,30.77
2022-10-06T04:44:16.047Z,32.37
2022-10-06T04:46:45.308Z,32.97
2022-10-06T04:49:19.571Z,33.63
2022-10-06T04:51:49.870Z,35.10
2022-10-06T04:54:20.339Z,34.93
2022-10-06T04:56:49.934Z,36.13
2022-10-06T04:59:18.412Z,38.17
2022-10-06T05:01:46.832Z,37.60
2022-10-06T05:04:15.353Z,37.20
2022-10-06T05:06:44.147Z,37.27
2022-10-06T05:09:14.891Z,38.83
2022-10-06T05:11:44.985Z,40.53
2022-10-06T05:14:13.710Z,41.80
2022-10-06T05:16:43.278Z,44.50
2022-10-06T05:19:11.823Z,45.30
2022-10-06T05:21:42.405Z,45.70
2022-10-06T05:24:12.928Z,46.37
2022-10-06T05:26:41.701Z,45.90
2022-10-06T05:29:12.553Z,48.63
2022-10-06T05:31:43.447Z,50.00
2022-10-06T05:34:12.002Z,49.30
2022-10-06T05:36:40.369Z,51.97
2022-10-06T05:39:08.896Z,52.50
2022-10-06T05:41:39.303Z,54.10
2022-10-06T05:44:09.191Z,53.53
2022-10-06T05:46:41.205Z,54.43
2022-10-06T05:49:10.767Z,56.10
2022-10-06T05:51:40.291Z,56.93
2022-10-06T05:54:09.777Z,59.93
2022-10-06T05:56:39.501Z,60.40
2022-10-06T05:59:08.302Z,60.10
2022-10-06T06:01:39.961Z,61.40
2022-10-06T06:04:11.496Z,61.00
2022-10-06T06:06:41.636Z,60.47
2022-10-06T06:09:12.262Z,58.17
2022-10-06T06:11:42.294Z,59.23
2022-10-06T06:14:12.386Z,59.67
2022-10-06T06:16:41.150Z,60.67
2022-10-06T06:19:14.528Z,61.90
2022-10-06T06:21:43.932Z,60.23
2022-10-06T06:24:12.328Z,61.50
2022-10-06T06:26:40.870Z,64.63
2022-10-06T06:29:09.229Z,67.47
2022-10-06T06:31:39.302Z,68.10
2022-10-06T06:34:09.112Z,70.93
2022-10-06T06:36:41.052Z,69.03
2022-10-06T06:39:11.325Z,72.67
2022-10-06T06:41:45.025Z,72.67
2022-10-06T06:44:14.430Z,72.30
2022-10-06T06:46:45.055Z,73.60
2022-10-06T06:49:13.749Z,75.00
2022-10-06T06:51:45.275Z,76.07
2022-10-06T06:54:13.817Z,73.27
2022-10-06T06:56:42.601Z,72.27
2022-10-06T06:59:15.559Z,68.17
2022-10-06T07:01:47.465Z,70.40
2022-10-06T07:04:18.047Z,69.43
2022-10-06T07:06:53.380Z,64.50
2022-10-06T07:09:22.752Z,66.10
2022-10-06T07:11:51.326Z,64.60
2022-10-06T07:14:22.672Z,62.10
2022-10-06T07:17:08.331Z,60.33
2022-10-06T07:19:53.902Z,55.73
2022-10-06T07:22:44.222Z,55.57
2022-10-06T07:25:21.656Z,54.70
2022-10-06T07:27:53.725Z,54.17
2022-10-06T07:30:23.813Z,55.17
2022-10-06T07:32:53.188Z,48.37
2022-10-06T07:35:23.778Z,45.77
2022-10-06T07:37:54.803Z,46.57
2022-10-06T07:40:24.402Z,42.77
2022-10-06T07:42:53.004Z,39.43
2022-10-06T07:45:42.283Z,39.53
2022-10-06T07:48:14.488Z,40.27
2022-10-06T07:50:44.270Z,37.40
2022-10-06T07:53:14.808Z,33.97
2022-10-06T07:55:46.465Z,32.10
2022-10-06T07:58:16.314Z,30.60
2022-10-06T08:00:46.100Z,26.40
2022-10-06T08:03:18.301Z,26.60
2022-10-06T08:05:59.885Z,26.03
2022-10-06T08:08:32.093Z,25.03
2022-10-06T08:11:08.162Z,25.00
2022-10-06T08:13:38.723Z,23.07
2022-10-06T08:16:10.633Z,21.53
2022-10-06T08:18:46.443Z,21.90
2022-10-06T08:21:17.567Z,21.57
2022-10-06T08:23:49.616Z,21.00
2022-10-06T08:26:20.937Z,20.70
2022-10-06T08:28:51.345Z,20.43
2022-10-06T08:31:21.524Z,20.60
2022-10-06T08:33:50.518Z,21.60
2022-10-06T08:36:20.794Z,20.47
2022-10-06T08:38:51.080Z,19.97
2022-10-06T08:41:21.189Z,20.40
2022-10-06T08:43:57.330Z,20.33
2022-10-06T08:46:29.647Z,19.97
2022-10-06T08:48:59.129Z,19.80
2022-10-06T08:51:43.538Z,19.67
2022-10-06T08:54:17.086Z,20.03
2022-10-06T08:56:54.723Z,20.13
2022-10-06T08:59:23.268Z,19.33
2022-10-06T09:01:54.837Z,18.60
2022-10-06T09:04:28.580Z,18.60
2022-10-06T09:07:05.542Z,19.77
2022-10-06T09:09:54.573Z,18.30
2022-10-06T09:12:36.836Z,18.47
2022-10-06T09:15:23.131Z,18.63
2022-10-06T09:17:56.435Z,18.80
2022-10-06T09:20:30.244Z,18.27
2022-10-06T09:22:58.843Z,18.70
2022-10-06T09:25:30.958Z,18.43
2022-10-06T09:28:00.582Z,18.20
2022-10-06T09:30:29.127Z,18.13
2022-10-06T09:33:01.213Z,17.57
2022-10-06T09:35:31.918Z,17.70
2022-10-06T09:38:08.237Z,17.20
2022-10-06T09:40:42.096Z,18.20
2022-10-06T09:43:21.118Z,18.50
2022-10-06T09:45:51.648Z,17.37
2022-10-06T09:48:24.990Z,18.10
2022-10-06T09:51:09.963Z,18.10
2022-10-06T09:53:39.975Z,17.60
2022-10-06T09:56:18.976Z,21.00
2022-10-06T09:58:58.045Z,20.50
2022-10-06T10:01:28.840Z,20.63
2022-10-06T10:04:20.558Z,20.33
2022-10-06T10:06:49.903Z,20.53
2022-10-06T10:09:30.482Z,21.00
2022-10-06T10:12:27.501Z,20.90
2022-10-06T10:14:59.349Z,20.40
2022-10-06T10:17:41.090Z,20.40
2022-10-06T10:20:28.133Z,20.80
2022-10-06T10:22:58.737Z,22.33
2022-10-06T10:25:50.629Z,20.90
2022-10-06T10:28:47.009Z,20.73
2022-10-06T10:31:23.099Z,19.50
2022-10-06T10:34:12.773Z,20.90
2022-10-06T10:36:55.485Z,20.40
2022-10-06T10:39:31.597Z,20.27
2022-10-06T10:42:03.763Z,20.27
2022-10-06T10:44:37.893Z,21.03
2022-10-06T10:47:16.938Z,22.23
2022-10-06T10:49:51.776Z,21.33
2022-10-06T10:52:23.957Z,20.30
2022-10-06T10:55:04.431Z,19.77
2022-10-06T10:57:38.641Z,19.87
2022-10-06T11:00:17.127Z,18.87
2022-10-06T11:02:45.632Z,20.03
2022-10-06T11:05:28.212Z,20.07
2022-10-06T11:08:03.312Z,20.40
2022-10-06T11:10:35.458Z,19.93
2022-10-06T11:13:17.199Z,19.10
2022-10-06T11:16:07.246Z,20.13
2022-10-06T11:18:48.090Z,20.80
2022-10-06T11:21:22.218Z,20.30
2022-10-06T11:23:56.362Z,20.30
2022-10-06T11:26:40.981Z,20.73
2022-10-06T11:29:20.263Z,22.33
2022-10-06T11:31:59.902Z,22.70
2022-10-06T11:34:28.171Z,22.50
2022-10-06T11:37:05.755Z,21.40
2022-10-06T11:39:43.895Z,21.50
2022-10-06T11:45:04.764Z,21.37
2022-10-06T11:47:42.073Z,21.03
2022-10-06T11:50:36.636Z,20.53
2022-10-06T11:53:05.802Z,21.50
2022-10-06T11:55:34.711Z,21.77
2022-10-06T11:58:41.428Z,20.40
2022-10-06T12:01:48.635Z,21.50
2022-10-06T12:04:23.550Z,21.03
2022-10-06T12:07:01.652Z,21.30
2022-10-06T12:09:52.090Z,20.60
2022-10-06T12:12:47.747Z,20.23
2022-10-06T12:18:47.790Z,21.43
2022-10-06T12:21:36.182Z,21.60
2022-10-06T12:24:23.502Z,21.07
2022-10-06T12:27:02.963Z,22.37
2022-10-06T12:29:43.430Z,21.43
2022-10-06T12:32:23.974Z,20.80
2022-10-06T12:35:15.040Z,20.73
2022-10-06T12:37:51.527Z,21.70
2022-10-06T12:40:48.221Z,20.87
2022-10-06T12:43:44.549Z,20.70
2022-10-06T12:46:22.050Z,20.40
2022-10-06T12:49:00.990Z,21.70
2022-10-06T12:51:34.694Z,20.57
2022-10-06T12:54:13.269Z,21.23
2022-10-06T12:56:43.276Z,20.07
2022-10-06T12:59:26.776Z,20.23
2022-10-06T13:01:57.859Z,20.20
2022-10-06T13:04:35.690Z,20.93
2022-10-06T13:07:10.453Z,21.30
2022-10-06T13:09:40.142Z,22.10
2022-10-06T13:12:23.152Z,21.23
2022-10-06T13:15:16.221Z,21.20
2022-10-06T13:17:47.637Z,21.17
2022-10-06T13:20:27.006Z,21.67
2022-10-06T13:23:00.275Z,20.57
2022-10-06T13:25:36.782Z,21.73
2022-10-06T13:28:07.091Z,20.90
2022-10-06T13:30:38.761Z,21.00
2022-10-06T13:33:09.171Z,20.97
2022-10-06T13:35:37.486Z,20.63
2022-10-06T13:38:06.769Z,20.60
2022-10-06T13:40:45.051Z,22.77
2022-10-06T13:43:18.454Z,20.67
2022-10-06T13:45:48.641Z,20.60
2022-10-06T13:48:22.123Z,21.50
2022-10-06T13:50:53.110Z,21.40
2022-10-06T13:53:25.722Z,20.97
2022-10-06T13:55:55.764Z,21.03
2022-10-06T13:58:28.026Z,20.83
2022-10-06T14:00:58.206Z,20.80
2022-10-06T14:03:33.856Z,20.67
2022-10-06T14:06:14.552Z,21.90
2022-10-06T14:08:45.614Z,21.43
2022-10-06T14:11:15.201Z,22.20
2022-10-06T14:13:51.225Z,21.90
2022-10-06T14:16:24.542Z,23.13
2022-10-06T14:18:56.912Z,22.57
2022-10-06T14:21:35.777Z,21.40
2022-10-06T14:24:07.819Z,21.63
2022-10-06T14:26:39.975Z,21.50
2022-10-06T14:29:08.388Z,21.53
2022-10-06T14:31:36.752Z,21.00
2022-10-06T14:34:05.872Z,21.53
2022-10-06T14:36:36.828Z,21.67
2022-10-06T14:39:09.235Z,22.07
2022-10-06T14:41:39.627Z,21.80
2022-10-06T14:44:10.914Z,22.10
2022-10-06T14:46:39.989Z,22.90
2022-10-06T14:49:09.281Z,22.90
2022-10-06T14:51:41.069Z,22.43
2022-10-06T14:54:11.192Z,22.43
2022-10-06T14:56:42.006Z,21.77
2022-10-06T14:59:12.688Z,22.00
2022-10-06T15:01:42.298Z,20.90
2022-10-06T15:04:12.594Z,21.57
2022-10-06T15:06:59.894Z,21.50
2022-10-06T15:09:31.054Z,20.77
2022-10-06T15:12:01.306Z,20.50
2022-10-06T15:14:39.825Z,20.43
2022-10-06T15:17:08.337Z,20.57
2022-10-06T15:19:37.194Z,20.80
2022-10-06T15:22:10.148Z,21.10
2022-10-06T15:24:51.468Z,20.97
2022-10-06T15:27:38.873Z,20.80
2022-10-06T15:30:08.198Z,20.00
2022-10-06T15:32:36.548Z,19.67
2022-10-06T15:35:07.383Z,20.53
2022-10-06T15:37:42.381Z,20.23
2022-10-06T15:40:22.397Z,19.30
2022-10-06T15:42:52.848Z,20.13
2022-10-06T15:45:22.489Z,20.03
2022-10-06T15:48:00.733Z,19.33
2022-10-06T15:50:33.973Z,20.20
2022-10-06T15:53:03.454Z,19.83
2022-10-06T15:55:31.629Z,20.03
2022-10-06T15:58:01.024Z,20.37
2022-10-06T16:00:29.125Z,20.83
2022-10-06T16:02:59.265Z,20.17
2022-10-06T16:05:49.154Z,20.23
2022-10-06T16:08:17.291Z,20.50
2022-10-06T16:10:51.003Z,20.90
2022-10-06T16:13:20.543Z,20.17
2022-10-06T16:15:58.090Z,20.60
2022-10-06T16:18:33.124Z,19.97
2022-10-06T16:21:01.256Z,20.50
2022-10-06T16:23:33.261Z,21.00
2022-10-06T16:26:04.616Z,20.23
2022-10-06T16:28:40.285Z,21.10
2022-10-06T16:31:11.752Z,20.40
2022-10-06T16:33:47.236Z,21.20
2022-10-06T16:36:21.873Z,21.67
2022-10-06T16:38:54.430Z,18.70
2022-10-06T16:41:23.842Z,18.47
2022-10-06T16:43:55.170Z,18.90
2022-10-06T16:46:26.415Z,19.20
2022-10-06T16:48:56.030Z,19.57
2022-10-06T16:51:27.832Z,19.23
2022-10-06T16:53:59.118Z,21.60
2022-10-06T16:56:32.867Z,21.50
2022-10-06T16:59:04.828Z,19.77
2022-10-06T17:01:37.802Z,19.60
2022-10-06T17:04:07.580Z,20.03
2022-10-06T17:06:39.500Z,20.50
2022-10-06T17:09:11.301Z,20.30
2022-10-06T17:11:48.048Z,21.00
2022-10-06T17:14:19.391Z,20.07
2022-10-06T17:16:48.620Z,19.47
2022-10-06T17:19:18.943Z,18.70
2022-10-06T17:21:50.506Z,18.60
2022-10-06T17:24:22.679Z,18.07
2022-10-06T17:26:51.834Z,18.60
2022-10-06T17:29:23.509Z,18.17
2022-10-06T17:31:59.331Z,18.43
2022-10-06T17:34:32.356Z,19.00
2022-10-06T17:37:02.171Z,18.93
2022-10-06T17:39:30.976Z,19.50
2022-10-06T17:42:01.296Z,20.30
2022-10-06T17:44:31.967Z,19.53
2022-10-06T17:47:01.362Z,19.80
2022-10-06T17:49:34.736Z,18.97
2022-10-06T17:52:07.403Z,19.17
2022-10-06T17:54:38.639Z,18.90
2022-10-06T17:57:06.976Z,18.87
2022-10-06T17:59:45.963Z,18.50
2022-10-06T18:02:15.522Z,18.57
2022-10-06T18:04:47.607Z,19.17
2022-10-06T18:07:22.202Z,19.50
2022-10-06T18:10:05.679Z,19.77
2022-10-06T18:12:38.878Z,19.37
2022-10-06T18:15:12.587Z,19.50
2022-10-06T18:17:42.593Z,19.80
2022-10-06T18:20:11.545Z,19.87
2022-10-06T18:22:49.371Z,21.27
2022-10-06T18:25:23.249Z,19.67
2022-10-06T18:27:55.167Z,19.60
2022-10-06T18:30:29.447Z,19.47
2022-10-06T18:38:42.630Z,21.67
2022-10-06T18:41:15.545Z,20.73
2022-10-06T18:43:44.113Z,21.37
2022-10-06T18:46:36.286Z,20.50
2022-10-06T18:49:10.838Z,20.27
2022-10-06T18:51:45.768Z,20.90
2022-10-06T18:54:16.644Z,20.40
2022-10-06T18:56:50.849Z,19.67
2022-10-06T18:59:21.333Z,19.83
2022-10-06T19:01:51.847Z,20.30
2022-10-06T19:04:21.958Z,21.00
2022-10-06T19:06:53.055Z,20.50
2022-10-06T19:09:23.476Z,21.03
2022-10-06T19:11:55.471Z,22.63
2022-10-06T19:14:26.601Z,21.57
2022-10-06T19:16:59.064Z,22.30
2022-10-06T19:19:28.563Z,22.27
2022-10-06T19:21:59.572Z,22.07
2022-10-06T19:24:29.810Z,22.20
2022-10-06T19:26:58.933Z,22.10
2022-10-06T19:29:27.987Z,22.73
2022-10-06T19:31:59.512Z,22.50
2022-10-06T19:34:29.138Z,23.70
2022-10-06T19:36:58.279Z,24.73
2022-10-06T19:39:28.343Z,24.40
2022-10-06T19:42:13.710Z,23.13
2022-10-06T19:44:43.269Z,23.10
2022-10-06T19:47:16.070Z,23.13
2022-10-06T19:49:45.243Z,23.87
2022-10-06T19:52:14.202Z,24.40
2022-10-06T19:54:42.398Z,24.10
2022-10-06T19:57:11.573Z,23.73
2022-10-06T19:59:40.786Z,24.50
2022-10-06T20:02:10.245Z,23.73
2022-10-06T20:04:40.641Z,24.57
2022-10-06T20:07:09.910Z,25.03
2022-10-06T20:09:39.126Z,26.67
2022-10-06T20:12:07.542Z,26.03
2022-10-06T20:14:36.437Z,25.80
2022-10-06T20:17:05.907Z,25.87
2022-10-06T20:19:42.574Z,25.67
2022-10-06T20:22:10.969Z,25.90
2022-10-06T20:24:39.297Z,27.40
2022-10-06T20:27:07.924Z,25.67
2022-10-06T20:29:36.561Z,26.50
2022-10-06T20:32:06.018Z,26.00
2022-10-06T20:34:34.534Z,25.77
2022-10-06T20:37:06.876Z,24.50
2022-10-06T20:39:53.598Z,24.23
2022-10-06T20:42:22.489Z,24.93
2022-10-06T20:44:51.233Z,24.83
2022-10-06T20:47:21.755Z,26.27
2022-10-06T20:49:54.608Z,25.07
2022-10-06T20:52:24.857Z,25.80
2022-10-06T20:54:54.576Z,26.00
2022-10-06T20:57:23.086Z,26.43
2022-10-06T20:59:52.563Z,26.30
2022-10-06T21:02:23.351Z,26.27
2022-10-06T21:04:51.771Z,27.40
2022-10-06T21:07:21.941Z,27.07
2022-10-06T21:09:52.632Z,26.67
2022-10-06T21:12:21.280Z,27.50
2022-10-06T21:14:50.050Z,26.40
2022-10-06T21:17:18.972Z,28.50
2022-10-06T21:19:47.480Z,27.07
2022-10-06T21:22:21.695Z,26.73
2022-10-06T21:24:50.034Z,26.80
2022-10-06T21:27:21.144Z,27.30
2022-10-06T21:29:49.450Z,28.67
2022-10-06T21:32:19.114Z,29.27
2022-10-06T21:34:47.702Z,29.80
2022-10-06T21:37:17.973Z,31.30
2022-10-06T21:39:46.416Z,30.67
2022-10-06T21:42:14.867Z,30.83
2022-10-06T21:44:45.643Z,33.10
2022-10-06T21:47:25.978Z,31.77
2022-10-06T21:49:54.669Z,31.17
2022-10-06T21:52:25.013Z,31.90
2022-10-06T21:54:54.580Z,31.27
2022-10-06T21:57:23.435Z,31.47
2022-10-06T21:59:54.087Z,31.53
2022-10-06T22:02:22.825Z,31.37
2022-10-06T22:04:52.121Z,31.33
2022-10-06T22:07:20.721Z,31.03
2022-10-06T22:09:49.191Z,31.37
2022-10-06T22:12:17.890Z,31.63
2022-10-06T22:14:50.035Z,35.33
2022-10-06T22:17:19.745Z,33.57
2022-10-06T22:19:49.309Z,33.53
2022-10-06T22:22:19.763Z,33.03
2022-10-06T22:24:52.075Z,32.33
2022-10-06T22:27:20.357Z,32.90
2022-10-06T22:29:48.608Z,34.27
2022-10-06T22:32:16.884Z,33.97
2022-10-06T22:34:46.886Z,34.63
2022-10-06T22:37:15.072Z,35.37
2022-10-06T22:39:43.600Z,35.17
2022-10-06T22:42:11.773Z,35.93
2022-10-06T22:44:41.034Z,37.37
2022-10-06T22:47:09.386Z,37.20
2022-10-06T22:49:38.681Z,36.47
2022-10-06T22:52:08.393Z,36.97
2022-10-06T22:54:36.740Z,37.37
2022-10-06T22:57:05.270Z,38.23
2022-10-06T22:59:34.523Z,38.63
2022-10-06T23:02:02.804Z,39.83
2022-10-06T23:04:34.991Z,39.17
2022-10-06T23:07:04.169Z,40.50
2022-10-06T23:09:33.863Z,40.47
2022-10-06T23:12:02.048Z,40.83
2022-10-06T23:14:30.234Z,41.83
2022-10-06T23:16:58.580Z,43.07
2022-10-06T23:19:29.132Z,44.23
2022-10-06T23:21:57.400Z,44.77
2022-10-06T23:24:25.860Z,45.60
2022-10-06T23:26:58.179Z,44.37
2022-10-06T23:29:27.380Z,45.60
2022-10-06T23:31:56.239Z,47.37
2022-10-06T23:34:24.637Z,48.07
2022-10-06T23:36:52.844Z,47.10
2022-10-06T23:39:21.190Z,48.33
2022-10-06T23:41:50.448Z,50.73
2022-10-06T23:44:20.184Z,49.77
2022-10-06T23:46:48.471Z,51.63
2022-10-06T23:49:16.693Z,50.50
2022-10-06T23:51:44.965Z,52.90
2022-10-06T23:54:14.188Z,52.30
2022-10-06T23:56:42.465Z,52.50
2022-10-06T23:59:11.825Z,52.83
